createdAt,value
2018-07-01T00:00:36.924Z,16.40
2018-07-01T00:03:05.493Z,16.31
2018-07-01T00:05:34.142Z,16.26
2018-07-01T00:08:02.755Z,16.26
2018-07-01T00:10:31.337Z,16.20
2018-07-01T00:13:00.188Z,16.10
2018-07-01T00:15:29.074Z,16.14
2018-07-01T00:17:57.578Z,16.08
2018-07-01T00:20:26.197Z,16.10
2018-07-01T00:22:54.774Z,16.07
2018-07-01T00:25:23.333Z,16.05
2018-07-01T00:27:51.840Z,16.00
2018-07-01T00:30:20.518Z,15.98
2018-07-01T00:32:49.176Z,16.04
2018-07-01T00:35:17.770Z,16.01
2018-07-01T00:37:46.365Z,16.04
2018-07-01T00:40:14.928Z,16.02
2018-07-01T00:42:43.511Z,15.97
2018-07-01T00:45:12.130Z,15.97
2018-07-01T00:47:40.662Z,15.81
2018-07-01T00:50:09.165Z,15.79
2018-07-01T00:52:37.959Z,15.74
2018-07-01T00:55:06.853Z,15.72
2018-07-01T00:57:35.467Z,15.68
2018-07-01T01:00:04.136Z,15.64
2018-07-01T01:02:32.766Z,15.63
2018-07-01T01:05:01.247Z,15.60
2018-07-01T01:07:29.828Z,15.53
2018-07-01T01:09:58.708Z,15.50
2018-07-01T01:12:27.332Z,15.45
2018-07-01T01:14:56.055Z,15.36
2018-07-01T01:17:24.777Z,15.31
2018-07-01T01:19:53.337Z,15.25
2018-07-01T01:22:21.891Z,15.09
2018-07-01T01:24:50.376Z,15.11
2018-07-01T01:27:18.847Z,15.04
2018-07-01T01:29:47.489Z,15.03
2018-07-01T01:32:16.091Z,14.89
2018-07-01T01:34:44.636Z,14.75
2018-07-01T01:37:13.202Z,14.71
2018-07-01T01:39:43.062Z,14.67
2018-07-01T01:42:18.053Z,14.78
2018-07-01T01:44:50.873Z,14.67
2018-07-01T01:47:24.340Z,14.64
2018-07-01T01:50:02.080Z,14.62
2018-07-01T01:52:35.222Z,14.60
2018-07-01T01:55:08.624Z,14.56
2018-07-01T01:57:41.921Z,14.53
2018-07-01T02:00:14.483Z,14.47
2018-07-01T02:04:52.804Z,14.44
2018-07-01T02:07:29.468Z,14.29
2018-07-01T02:09:58.049Z,14.26
2018-07-01T02:12:26.924Z,14.08
2018-07-01T02:15:02.327Z,14.13
2018-07-01T02:17:33.780Z,14.09
2018-07-01T02:20:02.349Z,13.99
2018-07-01T02:22:37.394Z,13.97
2018-07-01T02:25:09.733Z,13.86
2018-07-01T02:27:38.515Z,13.78
2018-07-01T02:30:07.355Z,13.67
2018-07-01T02:32:36.173Z,13.62
2018-07-01T02:35:04.796Z,13.66
2018-07-01T02:37:33.591Z,13.65
2018-07-01T02:40:02.191Z,13.60
2018-07-01T02:42:30.841Z,13.44
2018-07-01T02:44:59.473Z,13.45
2018-07-01T02:47:28.079Z,13.44
2018-07-01T02:49:56.585Z,13.39
2018-07-01T02:52:25.167Z,13.37
2018-07-01T02:54:53.725Z,13.37
2018-07-01T02:57:22.433Z,13.35
2018-07-01T02:59:50.971Z,13.31
2018-07-01T03:02:19.679Z,13.29
2018-07-01T03:04:48.213Z,13.25
2018-07-01T03:07:16.693Z,13.21
2018-07-01T03:09:45.250Z,13.22
2018-07-01T03:12:13.800Z,13.26
2018-07-01T03:14:42.337Z,13.27
2018-07-01T03:17:10.903Z,13.20
2018-07-01T03:19:39.403Z,13.24
2018-07-01T03:22:08.005Z,13.20
2018-07-01T03:24:36.543Z,13.16
2018-07-01T03:27:05.080Z,13.15
2018-07-01T03:29:33.607Z,13.12
2018-07-01T03:32:02.112Z,13.14
2018-07-01T03:34:30.667Z,12.98
2018-07-01T03:36:59.424Z,13.05
2018-07-01T03:39:28.141Z,12.87
2018-07-01T03:41:56.747Z,12.96
2018-07-01T03:44:25.313Z,12.95
2018-07-01T03:46:53.863Z,12.87
2018-07-01T03:49:22.617Z,12.86
2018-07-01T03:51:51.233Z,13.01
2018-07-01T03:54:19.858Z,12.97
2018-07-01T03:57:02.801Z,12.98
2018-07-01T03:59:31.387Z,13.01
2018-07-01T04:02:00.012Z,13.08
2018-07-01T04:04:28.783Z,13.18
2018-07-01T04:06:57.381Z,13.22
2018-07-01T04:09:25.993Z,13.30
2018-07-01T04:11:54.622Z,13.38
2018-07-01T04:14:23.319Z,13.41
2018-07-01T04:16:52.026Z,13.46
2018-07-01T04:19:24.771Z,13.48
2018-07-01T04:21:53.577Z,13.49
2018-07-01T04:24:22.123Z,13.57
2018-07-01T04:26:50.685Z,13.64
2018-07-01T04:29:19.454Z,13.65
2018-07-01T04:31:47.956Z,13.68
2018-07-01T04:34:16.506Z,13.69
2018-07-01T04:36:45.324Z,13.68
2018-07-01T04:39:13.897Z,13.71
2018-07-01T04:41:42.459Z,13.77
2018-07-01T04:44:11.105Z,13.76
2018-07-01T04:46:39.663Z,13.84
2018-07-01T04:49:08.262Z,13.83
2018-07-01T04:51:36.807Z,13.86
2018-07-01T04:54:05.435Z,13.88
2018-07-01T04:56:33.998Z,13.98
2018-07-01T04:59:02.602Z,14.08
2018-07-01T05:01:31.176Z,14.21
2018-07-01T05:04:00.117Z,14.44
2018-07-01T05:06:28.896Z,15.32
2018-07-01T05:08:57.364Z,16.32
2018-07-01T05:11:25.915Z,16.06
2018-07-01T05:13:55.305Z,16.09
2018-07-01T05:16:23.886Z,15.87
2018-07-01T05:18:52.771Z,15.74
2018-07-01T05:21:21.361Z,15.48
2018-07-01T05:23:49.869Z,15.49
2018-07-01T05:26:18.379Z,15.44
2018-07-01T05:28:47.052Z,15.51
2018-07-01T05:31:15.666Z,15.56
2018-07-01T05:33:44.226Z,15.41
2018-07-01T05:36:13.090Z,15.47
2018-07-01T05:38:41.663Z,15.74
2018-07-01T05:41:10.217Z,16.74
2018-07-01T05:43:38.804Z,17.72
2018-07-01T05:46:07.550Z,18.60
2018-07-01T05:48:36.316Z,18.77
2018-07-01T05:51:05.142Z,19.07
2018-07-01T05:53:33.848Z,19.61
2018-07-01T05:56:02.427Z,19.73
2018-07-01T05:58:30.958Z,19.60
2018-07-01T06:00:59.519Z,19.74
2018-07-01T06:03:28.249Z,20.33
2018-07-01T06:05:56.853Z,20.46
2018-07-01T06:08:25.434Z,20.32
2018-07-01T06:10:53.975Z,20.29
2018-07-01T06:13:22.824Z,21.21
2018-07-01T06:15:51.351Z,21.81
2018-07-01T06:18:20.005Z,22.04
2018-07-01T06:20:48.624Z,21.62
2018-07-01T06:23:17.224Z,20.90
2018-07-01T06:25:46.027Z,19.88
2018-07-01T06:28:14.544Z,21.24
2018-07-01T06:30:43.159Z,21.40
2018-07-01T06:33:11.946Z,20.31
2018-07-01T06:35:40.556Z,20.65
2018-07-01T06:38:09.237Z,21.11
2018-07-01T06:40:37.796Z,20.39
2018-07-01T06:43:06.413Z,20.09
2018-07-01T06:45:36.270Z,19.80
2018-07-01T06:48:05.277Z,19.97
2018-07-01T06:50:33.878Z,19.91
2018-07-01T06:53:02.634Z,19.02
2018-07-01T06:55:31.195Z,19.28
2018-07-01T06:58:00.022Z,19.01
2018-07-01T07:00:28.508Z,18.91
2018-07-01T07:02:57.037Z,19.40
2018-07-01T07:05:25.668Z,19.92
2018-07-01T07:07:54.810Z,19.76
2018-07-01T07:10:23.602Z,19.94
2018-07-01T07:12:52.152Z,19.97
2018-07-01T07:15:20.981Z,19.73
2018-07-01T07:17:49.662Z,19.28
2018-07-01T07:20:18.615Z,19.26
2018-07-01T07:22:47.194Z,18.98
2018-07-01T07:25:15.718Z,18.83
2018-07-01T07:27:44.568Z,19.14
2018-07-01T07:30:13.175Z,18.94
2018-07-01T07:32:41.940Z,19.46
2018-07-01T07:35:10.595Z,20.14
2018-07-01T07:37:39.316Z,19.86
2018-07-01T07:40:07.968Z,19.48
2018-07-01T07:42:36.715Z,20.06
2018-07-01T07:45:05.412Z,20.07
2018-07-01T07:47:34.007Z,19.69
2018-07-01T07:50:02.532Z,20.37
2018-07-01T07:52:31.098Z,19.48
2018-07-01T07:54:59.734Z,19.35
2018-07-01T07:57:31.729Z,19.65
2018-07-01T08:00:01.563Z,19.48
2018-07-01T08:02:30.432Z,19.06
2018-07-01T08:04:58.924Z,19.34
2018-07-01T08:07:27.539Z,19.65
2018-07-01T08:09:58.437Z,20.35
2018-07-01T08:12:27.123Z,20.01
2018-07-01T08:14:56.680Z,20.06
2018-07-01T08:17:25.475Z,20.38
2018-07-01T08:19:57.264Z,19.65
2018-07-01T08:22:26.177Z,19.69
2018-07-01T08:25:00.636Z,19.96
2018-07-01T08:27:29.361Z,19.48
2018-07-01T08:29:57.978Z,19.81
2018-07-01T08:32:26.506Z,19.92
2018-07-01T08:34:55.175Z,20.18
2018-07-01T08:37:23.839Z,19.61
2018-07-01T08:39:54.028Z,20.15
2018-07-01T08:42:23.771Z,20.29
2018-07-01T08:44:53.572Z,20.20
2018-07-01T08:47:22.139Z,20.12
2018-07-01T08:49:50.767Z,20.43
2018-07-01T08:52:19.756Z,20.34
2018-07-01T08:54:48.460Z,19.86
2018-07-01T08:57:18.272Z,19.76
2018-07-01T08:59:47.699Z,20.00
2018-07-01T09:02:17.159Z,20.19
2018-07-01T09:04:45.774Z,20.41
2018-07-01T09:07:14.973Z,20.77
2018-07-01T09:09:43.557Z,21.17
2018-07-01T09:12:12.270Z,20.68
2018-07-01T09:14:40.734Z,21.01
2018-07-01T09:17:09.933Z,20.50
2018-07-01T09:19:38.837Z,20.76
2018-07-01T09:22:07.851Z,21.09
2018-07-01T09:24:36.586Z,21.03
2018-07-01T09:27:05.991Z,20.77
2018-07-01T09:29:35.250Z,20.81
2018-07-01T09:32:04.202Z,20.92
2018-07-01T09:34:32.808Z,20.82
2018-07-01T09:37:01.383Z,20.93
2018-07-01T09:39:29.960Z,20.61
2018-07-01T09:41:59.337Z,20.19
2018-07-01T09:44:28.109Z,20.35
2018-07-01T09:46:56.630Z,20.65
2018-07-01T09:49:25.176Z,20.89
2018-07-01T09:51:53.928Z,20.40
2018-07-01T09:54:22.574Z,20.72
2018-07-01T09:56:51.117Z,20.91
2018-07-01T09:59:20.251Z,20.63
2018-07-01T10:01:49.206Z,20.90
2018-07-01T10:04:17.786Z,20.89
2018-07-01T10:06:46.318Z,21.06
2018-07-01T10:09:15.117Z,20.57
2018-07-01T10:11:43.721Z,20.32
2018-07-01T10:14:12.254Z,20.88
2018-07-01T10:16:40.972Z,21.10
2018-07-01T10:19:09.464Z,21.25
2018-07-01T10:21:38.039Z,21.11
2018-07-01T10:24:06.590Z,20.88
2018-07-01T10:26:35.203Z,21.24
2018-07-01T10:29:09.674Z,21.35
2018-07-01T10:31:38.725Z,21.37
2018-07-01T10:34:08.299Z,21.05
2018-07-01T10:36:36.909Z,21.04
2018-07-01T10:39:20.176Z,21.19
2018-07-01T10:41:49.264Z,21.86
2018-07-01T10:44:17.841Z,21.50
2018-07-01T10:46:46.529Z,21.74
2018-07-01T10:49:15.119Z,21.71
2018-07-01T10:51:43.850Z,21.40
2018-07-01T10:54:12.571Z,21.38
2018-07-01T10:56:41.110Z,21.19
2018-07-01T10:59:10.022Z,21.10
2018-07-01T11:01:38.650Z,21.33
2018-07-01T11:04:07.336Z,21.57
2018-07-01T11:06:36.188Z,21.09
2018-07-01T11:09:09.201Z,20.90
2018-07-01T11:11:37.821Z,20.99
2018-07-01T11:14:06.567Z,21.34
2018-07-01T11:16:35.092Z,21.64
2018-07-01T11:19:03.664Z,21.51
2018-07-01T11:21:32.201Z,21.87
2018-07-01T11:24:00.753Z,21.73
2018-07-01T11:26:29.396Z,21.49
2018-07-01T11:28:57.937Z,21.38
2018-07-01T11:31:26.450Z,20.97
2018-07-01T11:33:54.934Z,21.12
2018-07-01T11:36:23.613Z,21.43
2018-07-01T11:38:52.288Z,21.79
2018-07-01T11:41:21.063Z,21.78
2018-07-01T11:43:49.622Z,21.96
2018-07-01T11:46:18.177Z,21.73
2018-07-01T11:48:46.640Z,21.87
2018-07-01T11:51:15.119Z,21.82
2018-07-01T11:53:43.641Z,21.69
2018-07-01T11:56:12.263Z,21.96
2018-07-01T11:58:40.730Z,21.75
2018-07-01T12:01:09.304Z,21.68
2018-07-01T12:03:37.837Z,21.78
2018-07-01T12:06:06.518Z,21.87
2018-07-01T12:08:35.111Z,22.21
2018-07-01T12:11:03.765Z,22.45
2018-07-01T12:13:32.275Z,22.30
2018-07-01T12:16:00.988Z,22.21
2018-07-01T12:18:29.799Z,22.23
2018-07-01T12:20:58.449Z,22.16
2018-07-01T12:23:27.137Z,22.31
2018-07-01T12:25:56.101Z,22.08
2018-07-01T12:28:24.753Z,22.21
2018-07-01T12:30:53.408Z,22.23
2018-07-01T12:33:21.976Z,22.27
2018-07-01T12:35:50.528Z,22.41
2018-07-01T12:38:19.034Z,22.36
2018-07-01T12:40:47.567Z,22.28
2018-07-01T12:43:16.127Z,21.95
2018-07-01T12:45:44.654Z,22.14
2018-07-01T12:48:13.241Z,22.13
2018-07-01T12:50:41.903Z,22.43
2018-07-01T12:53:10.468Z,22.50
2018-07-01T12:55:39.190Z,22.51
2018-07-01T12:58:07.756Z,22.57
2018-07-01T13:00:36.267Z,22.30
2018-07-01T13:03:04.828Z,21.90
2018-07-01T13:05:33.438Z,22.08
2018-07-01T13:08:01.907Z,21.99
2018-07-01T13:10:30.403Z,22.39
2018-07-01T13:12:59.045Z,22.46
2018-07-01T13:15:27.570Z,22.44
2018-07-01T13:17:56.098Z,22.42
2018-07-01T13:20:24.604Z,22.36
2018-07-01T13:22:53.208Z,22.54
2018-07-01T13:25:21.848Z,22.41
2018-07-01T13:27:50.382Z,22.64
2018-07-01T13:30:19.424Z,22.39
2018-07-01T13:32:48.104Z,22.48
2018-07-01T13:35:16.910Z,22.71
2018-07-01T13:37:45.782Z,22.69
2018-07-01T13:40:14.319Z,22.78
2018-07-01T13:42:43.896Z,22.12
2018-07-01T13:45:12.576Z,22.53
2018-07-01T13:47:41.058Z,22.68
2018-07-01T13:50:09.803Z,22.50
2018-07-01T13:52:38.671Z,22.64
2018-07-01T13:55:07.331Z,22.40
2018-07-01T13:57:36.461Z,22.70
2018-07-01T14:00:06.521Z,22.59
2018-07-01T14:02:35.100Z,22.65
2018-07-01T14:05:03.893Z,22.55
2018-07-01T14:10:00.368Z,22.59
2018-07-01T14:12:29.154Z,22.66
2018-07-01T14:14:57.699Z,22.90
2018-07-01T14:17:28.560Z,22.85
2018-07-01T14:19:57.153Z,22.56
2018-07-01T14:22:26.175Z,22.60
2018-07-01T14:24:54.923Z,22.68
2018-07-01T14:27:23.426Z,22.57
2018-07-01T14:29:52.017Z,22.82
2018-07-01T14:32:20.886Z,22.73
2018-07-01T14:34:49.447Z,22.71
2018-07-01T14:37:17.965Z,22.80
2018-07-01T14:39:46.622Z,23.02
2018-07-01T14:42:15.354Z,23.11
2018-07-01T14:44:43.986Z,23.02
2018-07-01T14:47:12.524Z,22.89
2018-07-01T14:49:41.070Z,22.91
2018-07-01T14:52:39.985Z,22.92
2018-07-01T14:55:08.568Z,22.57
2018-07-01T14:57:37.494Z,22.87
2018-07-01T15:00:06.080Z,23.01
2018-07-01T15:02:34.962Z,23.19
2018-07-01T15:05:03.529Z,22.95
2018-07-01T15:07:32.280Z,23.00
2018-07-01T15:10:00.841Z,23.02
2018-07-01T15:12:29.397Z,23.04
2018-07-01T15:14:58.081Z,22.92
2018-07-01T15:17:26.652Z,22.90
2018-07-01T15:19:55.215Z,22.93
2018-07-01T15:22:24.107Z,22.84
2018-07-01T15:24:53.055Z,22.82
2018-07-01T15:27:21.573Z,22.97
2018-07-01T15:29:50.365Z,22.74
2018-07-01T15:32:18.857Z,22.82
2018-07-01T15:34:47.575Z,22.97
2018-07-01T15:37:16.908Z,22.66
2018-07-01T15:39:45.605Z,22.79
2018-07-01T15:42:14.246Z,23.04
2018-07-01T15:44:42.839Z,23.13
2018-07-01T15:47:11.425Z,23.04
2018-07-01T15:49:40.010Z,23.29
2018-07-01T15:52:10.973Z,23.30
2018-07-01T15:54:39.522Z,23.20
2018-07-01T15:57:08.042Z,23.26
2018-07-01T15:59:36.731Z,23.18
2018-07-01T16:02:05.426Z,23.02
2018-07-01T16:04:34.328Z,22.80
2018-07-01T16:07:03.225Z,22.91
2018-07-01T16:09:32.114Z,23.02
2018-07-01T16:12:01.114Z,23.17
2018-07-01T16:14:29.818Z,23.16
2018-07-01T16:16:58.471Z,23.30
2018-07-01T16:19:27.139Z,22.98
2018-07-01T16:21:55.773Z,22.96
2018-07-01T16:24:24.436Z,22.98
2018-07-01T16:26:55.668Z,23.01
2018-07-01T16:29:24.506Z,23.09
2018-07-01T16:31:53.324Z,23.11
2018-07-01T16:34:22.499Z,23.17
2018-07-01T16:36:51.477Z,23.07
2018-07-01T16:39:20.455Z,22.77
2018-07-01T16:41:48.921Z,22.86
2018-07-01T16:44:17.445Z,22.76
2018-07-01T16:46:45.931Z,22.52
2018-07-01T16:49:14.725Z,22.61
2018-07-01T16:51:43.473Z,22.50
2018-07-01T16:54:12.301Z,22.67
2018-07-01T16:56:40.817Z,22.70
2018-07-01T16:59:09.343Z,22.77
2018-07-01T17:01:37.822Z,22.66
2018-07-01T17:04:06.475Z,22.66
2018-07-01T17:06:35.101Z,22.63
2018-07-01T17:09:06.639Z,22.69
2018-07-01T17:11:35.235Z,22.62
2018-07-01T17:14:04.013Z,22.65
2018-07-01T17:16:32.768Z,22.62
2018-07-01T17:19:01.428Z,22.56
2018-07-01T17:21:29.914Z,22.62
2018-07-01T17:23:58.437Z,22.57
2018-07-01T17:26:27.115Z,22.51
2018-07-01T17:28:55.705Z,22.59
2018-07-01T17:32:32.735Z,22.64
2018-07-01T17:35:01.271Z,22.58
2018-07-01T17:37:30.188Z,22.54
2018-07-01T17:39:58.758Z,22.50
2018-07-01T17:42:27.869Z,22.53
2018-07-01T17:44:56.590Z,22.49
2018-07-01T17:47:25.140Z,22.44
2018-07-01T17:49:53.792Z,22.33
2018-07-01T17:52:22.597Z,22.43
2018-07-01T17:54:51.075Z,22.38
2018-07-01T17:57:19.958Z,22.36
2018-07-01T17:59:48.522Z,22.35
2018-07-01T18:02:17.152Z,22.32
2018-07-01T18:04:45.856Z,22.29
2018-07-01T18:07:14.839Z,22.24
2018-07-01T18:09:44.083Z,22.21
2018-07-01T18:12:12.706Z,22.20
2018-07-01T18:14:41.862Z,22.20
2018-07-01T18:17:10.419Z,22.20
2018-07-01T18:19:38.939Z,22.17
2018-07-01T18:22:13.340Z,22.18
2018-07-01T18:24:58.071Z,22.16
2018-07-01T18:27:05.110Z,22.08
2018-07-01T18:29:33.646Z,21.99
2018-07-01T18:32:02.154Z,21.97
2018-07-01T18:34:30.664Z,21.93
2018-07-01T18:36:59.194Z,21.90
2018-07-01T18:39:27.920Z,21.87
2018-07-01T18:41:56.454Z,21.81
2018-07-01T18:44:25.273Z,21.77
2018-07-01T18:46:53.792Z,21.70
2018-07-01T18:49:22.740Z,21.75
2018-07-01T18:51:51.301Z,21.64
2018-07-01T18:54:19.805Z,21.59
2018-07-01T18:56:48.393Z,21.48
2018-07-01T18:59:16.900Z,21.43
2018-07-01T19:01:45.402Z,21.40
2018-07-01T19:04:14.161Z,21.36
2018-07-01T19:06:42.857Z,21.30
2018-07-01T19:09:11.921Z,21.24
2018-07-01T19:11:44.261Z,21.14
2018-07-01T19:14:12.991Z,21.13
2018-07-01T19:16:41.547Z,21.05
2018-07-01T19:19:10.202Z,20.97
2018-07-01T19:21:39.139Z,20.93
2018-07-01T19:24:08.342Z,20.86
2018-07-01T19:26:36.982Z,20.79
2018-07-01T19:29:06.553Z,20.77
2018-07-01T19:31:35.183Z,20.66
2018-07-01T19:34:03.821Z,20.59
2018-07-01T19:36:32.588Z,20.59
2018-07-01T19:39:01.369Z,20.57
2018-07-01T19:41:30.182Z,20.48
2018-07-01T19:44:13.535Z,20.40
2018-07-01T19:46:49.061Z,20.32
2018-07-01T19:49:38.769Z,20.25
2018-07-01T19:52:07.827Z,20.19
2018-07-01T19:54:37.010Z,20.16
2018-07-01T19:57:05.735Z,20.09
2018-07-01T19:59:34.290Z,20.09
2018-07-01T20:02:03.273Z,20.06
2018-07-01T20:04:33.479Z,20.07
2018-07-01T20:07:02.083Z,19.99
2018-07-01T20:09:31.000Z,19.91
2018-07-01T20:11:59.969Z,19.69
2018-07-01T20:14:28.817Z,19.76
2018-07-01T20:16:57.445Z,19.81
2018-07-01T20:19:26.126Z,19.66
2018-07-01T20:21:55.717Z,19.39
2018-07-01T20:24:24.721Z,19.38
2018-07-01T20:26:53.698Z,19.39
2018-07-01T20:29:22.662Z,19.33
2018-07-01T20:31:51.280Z,19.15
2018-07-01T20:34:19.967Z,18.96
2018-07-01T20:36:48.493Z,18.82
2018-07-01T20:39:17.005Z,18.72
2018-07-01T20:41:45.927Z,18.78
2018-07-01T20:44:56.021Z,18.83
2018-07-01T20:47:30.445Z,18.89
2018-07-01T20:50:03.393Z,18.78
2018-07-01T20:52:32.044Z,18.83
2018-07-01T20:55:00.935Z,18.74
2018-07-01T20:57:30.170Z,18.76
2018-07-01T20:59:59.328Z,18.75
2018-07-01T21:02:27.782Z,18.71
2018-07-01T21:04:57.405Z,18.66
2018-07-01T21:07:26.340Z,18.65
2018-07-01T21:09:55.137Z,18.59
2018-07-01T21:12:23.710Z,18.66
2018-07-01T21:14:52.486Z,18.57
2018-07-01T21:17:20.972Z,18.56
2018-07-01T21:19:49.746Z,18.29
2018-07-01T21:22:18.280Z,18.14
2018-07-01T21:24:47.036Z,18.07
2018-07-01T21:27:15.621Z,17.94
2018-07-01T21:29:44.353Z,17.94
2018-07-01T21:32:12.952Z,17.93
2018-07-01T21:34:41.530Z,17.85
2018-07-01T21:37:10.326Z,17.78
2018-07-01T21:39:39.111Z,17.71
2018-07-01T21:42:08.064Z,17.55
2018-07-01T21:44:36.685Z,17.35
2018-07-01T21:47:05.571Z,17.33
2018-07-01T21:49:34.122Z,17.17
2018-07-01T21:52:02.709Z,17.09
2018-07-01T21:54:31.179Z,17.08
2018-07-01T21:56:59.744Z,16.92
2018-07-01T21:59:28.306Z,16.83
2018-07-01T22:01:56.921Z,16.71
2018-07-01T22:04:25.598Z,16.69
2018-07-01T22:06:59.140Z,16.73
2018-07-01T22:09:28.281Z,16.68
2018-07-01T22:12:08.207Z,16.63
2018-07-01T22:14:47.929Z,16.58
2018-07-01T22:17:16.784Z,16.56
2018-07-01T22:19:45.672Z,16.61
2018-07-01T22:22:14.221Z,16.63
2018-07-01T22:24:42.975Z,16.52
2018-07-01T22:27:11.524Z,16.65
2018-07-01T22:29:40.063Z,16.45
2018-07-01T22:32:08.916Z,16.38
2018-07-01T22:34:37.478Z,16.43
2018-07-01T22:37:06.218Z,16.31
2018-07-01T22:39:34.723Z,16.20
2018-07-01T22:42:03.498Z,16.08
2018-07-01T22:44:32.329Z,15.98
2018-07-01T22:47:01.008Z,15.91
2018-07-01T22:49:29.693Z,15.83
2018-07-01T22:51:58.274Z,15.77
2018-07-01T22:54:26.847Z,15.75
2018-07-01T22:56:55.399Z,15.68
2018-07-01T22:59:23.916Z,15.64
2018-07-01T23:03:04.056Z,15.71
2018-07-01T23:05:32.573Z,15.63
2018-07-01T23:08:01.184Z,15.56
2018-07-01T23:10:30.682Z,15.50
2018-07-01T23:12:59.679Z,15.41
2018-07-01T23:15:28.468Z,15.36
2018-07-01T23:17:57.369Z,15.36
2018-07-01T23:20:25.972Z,15.28
2018-07-01T23:22:54.741Z,15.22
2018-07-01T23:25:23.359Z,15.23
2018-07-01T23:27:52.140Z,15.13
2018-07-01T23:30:20.881Z,15.07
2018-07-01T23:32:49.644Z,15.06
2018-07-01T23:35:18.366Z,15.00
2018-07-01T23:37:46.901Z,15.00
2018-07-01T23:40:15.597Z,14.98
2018-07-01T23:42:44.236Z,14.95
2018-07-01T23:45:15.868Z,14.90
2018-07-01T23:47:44.808Z,14.86
2018-07-01T23:50:13.616Z,14.85
2018-07-01T23:52:42.302Z,14.74
2018-07-01T23:55:11.379Z,14.73
2018-07-01T23:57:39.936Z,14.68
